Time;durP1;ratioP1;P1;durP2;ratioP2;P2;SDS_P1;SDS_P2;PMS_P1;PMS_P2;Temp;Humidity;BMP_temperature;BMP_pressure;BME280_temperature;BME280_humidity;BME280_pressure;Samples;Min_cycle;Max_cycle;Signal;HPM_P1;HPM_P2
2022/07/07 00:00:01;;;;;;;;;;;;;;;14.40;100.00;100418.91;3056199;19;961;-48
2022/07/07 00:01:05;;;;;;;;;;;;;;;14.41;100.00;100419.75;3055535;19;1845;-47
2022/07/07 00:02:10;;;;;;;;;;;;;;;14.41;100.00;100414.38;3056150;19;1679;-47
2022/07/07 00:03:12;;;;;;;;;;;;;;;14.44;100.00;100419.53;3054976;19;992;-48
2022/07/07 00:04:17;;;;;;;;;;;;;;;14.43;100.00;100416.94;3056092;19;1015;-48
2022/07/07 00:05:18;;;;;;;;;;;;;;;14.43;100.00;100417.81;3056353;19;873;-48
2022/07/07 00:06:23;;;;;;;;;;;;;;;14.43;100.00;100415.13;3056354;19;1816;-48
2022/07/07 00:07:25;;;;;;;;;;;;;;;14.42;100.00;100410.72;3055969;19;897;-48
2022/07/07 00:08:29;;;;;;;;;;;;;;;14.43;100.00;100417.81;3055924;19;976;-48
2022/07/07 00:09:31;;;;;;;;;;;;;;;14.43;100.00;100416.94;3056125;19;1850;-48
2022/07/07 00:10:36;;;;;;;;;;;;;;;14.42;100.00;100413.41;3056205;19;1628;-48
2022/07/07 00:11:38;;;;;;;;;;;;;;;14.42;100.00;100413.41;3056169;19;1103;-47
2022/07/07 00:12:42;;;;;;;;;;;;;;;14.42;100.00;100416.09;3056475;19;951;-47
2022/07/07 00:13:44;;;;;;;;;;;;;;;14.40;100.00;100412.66;3056329;19;964;-47
2022/07/07 00:14:48;;;;;;;;;;;;;;;14.40;100.00;100412.66;3056254;19;989;-47
2022/07/07 00:15:50;;;;;;;;;;;;;;;14.40;100.00;100415.34;3055771;19;1966;-48
2022/07/07 00:16:56;;;;;;;;;;;;;;;14.40;100.00;100415.34;3056117;19;873;-48
2022/07/07 00:17:58;;;;;;;;;;;;;;;14.41;100.00;100419.75;3055431;19;1037;-47
2022/07/07 00:19:04;;;;;;;;;;;;;;;14.41;100.00;100409.00;3055024;19;1039;-47
2022/07/07 00:20:06;;;;;;;;;;;;;;;14.43;100.00;100417.81;3055071;19;989;-48
2022/07/07 00:21:10;;;;;;;;;;;;;;;14.44;100.00;100419.53;3055735;19;1887;-48
2022/07/07 00:22:12;;;;;;;;;;;;;;;14.44;100.00;100416.84;3056193;19;940;-48
2022/07/07 00:23:17;;;;;;;;;;;;;;;14.45;100.00;100407.81;3055772;19;1184;-48
2022/07/07 00:24:18;;;;;;;;;;;;;;;14.47;100.00;100408.53;3056071;19;948;-48
2022/07/07 00:25:23;;;;;;;;;;;;;;;14.48;100.00;100410.25;3055256;19;1441;-47
2022/07/07 00:26:25;;;;;;;;;;;;;;;14.48;100.00;100409.41;3055869;19;1690;-46
2022/07/07 00:27:29;;;;;;;;;;;;;;;14.48;100.00;100410.25;3056077;19;1004;-48
2022/07/07 00:28:31;;;;;;;;;;;;;;;14.48;100.00;100407.56;3056181;19;814;-48
2022/07/07 00:29:35;;;;;;;;;;;;;;;14.48;100.00;100404.88;3056143;19;897;-48
2022/07/07 00:30:38;;;;;;;;;;;;;;;14.48;100.00;100414.78;3055035;19;1060;-48
2022/07/07 00:31:43;;;;;;;;;;;;;;;14.47;100.00;100407.69;3055893;19;977;-48
2022/07/07 00:32:44;;;;;;;;;;;;;;;14.45;100.00;100407.81;3055598;19;956;-48
2022/07/07 00:33:49;;;;;;;;;;;;;;;14.44;100.00;100408.78;3055943;19;1691;-48
2022/07/07 00:34:51;;;;;;;;;;;;;;;14.43;100.00;100406.22;3055333;19;977;-47
2022/07/07 00:35:55;;;;;;;;;;;;;;;14.40;100.00;100400.09;3055948;19;896;-47
2022/07/07 00:36:57;;;;;;;;;;;;;;;14.39;100.00;100405.56;3055975;19;952;-47
2022/07/07 00:38:01;;;;;;;;;;;;;;;14.36;100.00;100400.44;3055540;19;1027;-47
2022/07/07 00:39:03;;;;;;;;;;;;;;;14.33;100.00;100400.69;3055841;19;940;-48
2022/07/07 00:40:08;;;;;;;;;;;;;;;14.32;100.00;100402.50;3055915;19;893;-48
2022/07/07 00:41:10;;;;;;;;;;;;;;;14.32;100.00;100390.91;3054804;19;1846;-48
2022/07/07 00:42:17;;;;;;;;;;;;;;;14.31;100.00;100394.56;3055639;19;969;-48
2022/07/07 00:43:19;;;;;;;;;;;;;;;14.30;100.00;100395.53;3055581;19;1065;-48
2022/07/07 00:44:25;;;;;;;;;;;;;;;14.31;100.00;100397.25;3055935;19;913;-48
2022/07/07 00:45:27;;;;;;;;;;;;;;;14.31;100.00;100391.88;3055779;19;921;-48
2022/07/07 00:46:36;;;;;;;;;;;;;;;14.30;100.00;100390.19;3055864;19;987;-48
2022/07/07 00:47:40;;;;;;;;;;;;;;;14.31;100.00;100394.56;3054389;19;969;-48
2022/07/07 00:48:44;;;;;;;;;;;;;;;14.30;100.00;100391.03;3055189;19;934;-48
2022/07/07 00:49:46;;;;;;;;;;;;;;;14.32;100.00;100388.22;3055786;19;1035;-48
2022/07/07 00:50:51;;;;;;;;;;;;;;;14.31;100.00;100397.25;3055675;19;1779;-47
2022/07/07 00:51:53;;;;;;;;;;;;;;;14.31;100.00;100391.88;3054859;19;987;-48
2022/07/07 00:52:57;;;;;;;;;;;;;;;14.32;100.00;100389.09;3054816;19;995;-49
2022/07/07 00:53:59;;;;;;;;;;;;;;;14.32;100.00;100388.22;3055455;19;1006;-49
2022/07/07 00:55:04;;;;;;;;;;;;;;;14.32;100.00;100390.91;3055727;19;1709;-48
2022/07/07 00:56:06;;;;;;;;;;;;;;;14.33;100.00;100389.94;3055588;19;920;-48
2022/07/07 00:57:10;;;;;;;;;;;;;;;14.33;100.00;100390.81;3055598;19;2165;-48
2022/07/07 00:58:29;;;;;;;;;;;;;;;14.33;100.00;100395.31;3055783;19;1007;-48
2022/07/07 00:59:36;;;;;;;;;;;;;;;14.34;100.00;100399.72;3055198;19;1720;-48
2022/07/07 01:00:38;;;;;;;;;;;;;;;14.35;100.00;100404.09;3054904;19;1004;-48
2022/07/07 01:01:43;;;;;;;;;;;;;;;14.33;100.00;100400.69;3053920;19;1849;-47
2022/07/07 01:02:45;;;;;;;;;;;;;;;14.34;100.00;100399.72;3055986;19;798;-47
2022/07/07 01:03:50;;;;;;;;;;;;;;;14.35;100.00;100398.75;3055536;19;1663;-48
2022/07/07 01:04:54;;;;;;;;;;;;;;;14.36;100.00;100404.00;3055838;19;992;-48
2022/07/07 01:05:56;;;;;;;;;;;;;;;14.37;100.00;100403.00;3055736;19;948;-48
2022/07/07 01:07:00;;;;;;;;;;;;;;;14.37;100.00;100396.75;3056430;19;799;-48
2022/07/07 01:08:04;;;;;;;;;;;;;;;14.37;100.00;100396.75;3057727;19;979;-49
2022/07/07 01:09:08;;;;;;;;;;;;;;;14.38;100.00;100398.47;3058690;19;1668;-48
2022/07/07 01:10:10;;;;;;;;;;;;;;;14.38;100.00;100396.66;3058496;19;1133;-48
2022/07/07 01:11:14;;;;;;;;;;;;;;;14.40;100.00;100401.94;3058562;19;916;-48
2022/07/07 01:12:16;;;;;;;;;;;;;;;14.40;100.00;100396.56;3058788;19;884;-48
2022/07/07 01:13:21;;;;;;;;;;;;;;;14.33;100.00;100382.75;3058618;19;914;-48
2022/07/07 01:14:23;;;;;;;;;;;;;;;14.41;100.00;100387.53;3058586;19;1534;-48
2022/07/07 01:15:27;;;;;;;;;;;;;;;14.44;100.00;100397.19;3058611;19;1032;-48
2022/07/07 01:16:32;;;;;;;;;;;;;;;14.43;100.00;100392.78;3058273;19;920;-48
2022/07/07 01:17:36;;;;;;;;;;;;;;;14.44;100.00;100394.50;3059099;19;830;-48
2022/07/07 01:18:38;;;;;;;;;;;;;;;14.44;100.00;100389.97;3058542;19;983;-48
2022/07/07 01:19:43;;;;;;;;;;;;;;;14.45;100.00;100389.00;3058575;19;909;-48
2022/07/07 01:20:49;;;;;;;;;;;;;;;14.45;100.00;100394.38;3058435;19;924;-48
2022/07/07 01:21:52;;;;;;;;;;;;;;;14.44;100.00;100389.97;3058289;19;1834;-48
2022/07/07 01:22:56;;;;;;;;;;;;;;;14.45;100.00;100397.06;3058438;19;897;-48
2022/07/07 01:23:58;;;;;;;;;;;;;;;14.45;100.00;100398.91;3058383;19;976;-47
2022/07/07 01:25:03;;;;;;;;;;;;;;;14.45;100.00;100394.38;3057405;19;1108;-48
2022/07/07 01:26:04;;;;;;;;;;;;;;;14.46;100.00;100396.09;3058426;19;988;-48
2022/07/07 01:27:10;;;;;;;;;;;;;;;14.46;100.00;100405.97;3057828;19;910;-48
2022/07/07 01:28:12;;;;;;;;;;;;;;;14.48;100.00;100401.34;3058626;19;936;-48
2022/07/07 01:29:16;;;;;;;;;;;;;;;14.49;100.00;100405.75;3058066;19;1035;-47
2022/07/07 01:30:19;;;;;;;;;;;;;;;14.50;100.00;100399.38;3057306;19;881;-48
2022/07/07 01:31:23;;;;;;;;;;;;;;;14.51;100.00;100404.63;3057766;19;842;-48
2022/07/07 01:32:25;;;;;;;;;;;;;;;14.54;100.00;100392.78;3058227;19;945;-48
2022/07/07 01:33:30;;;;;;;;;;;;;;;14.55;100.00;100405.25;3057732;19;1723;-49
2022/07/07 01:34:31;;;;;;;;;;;;;;;14.56;100.00;100399.75;3058556;19;945;-49
2022/07/07 01:35:36;;;;;;;;;;;;;;;14.58;100.00;100397.81;3058181;19;874;-48
2022/07/07 01:36:38;;;;;;;;;;;;;;;14.58;100.00;100395.13;3058138;19;1186;-48
2022/07/07 01:37:42;;;;;;;;;;;;;;;14.60;100.00;100401.22;3057689;19;1781;-48
2022/07/07 01:38:44;;;;;;;;;;;;;;;14.62;100.00;100393.03;3058252;19;937;-48
2022/07/07 01:39:48;;;;;;;;;;;;;;;14.62;100.00;100396.56;3058136;19;865;-48
2022/07/07 01:40:53;;;;;;;;;;;;;;;14.64;100.00;100389.25;3058365;19;924;-48
2022/07/07 01:41:55;;;;;;;;;;;;;;;14.64;100.00;100389.25;3057751;19;1854;-48
2022/07/07 01:42:59;;;;;;;;;;;;;;;14.66;100.00;100391.81;3057952;19;925;-48
2022/07/07 01:44:01;;;;;;;;;;;;;;;14.66;100.00;100397.19;3058017;19;924;-48
2022/07/07 01:45:05;;;;;;;;;;;;;;;14.65;100.00;100382.91;3057852;19;948;-48
2022/07/07 01:46:07;;;;;;;;;;;;;;;14.66;100.00;100389.97;3057668;19;874;-48
2022/07/07 01:47:13;;;;;;;;;;;;;;;14.67;100.00;100391.69;3058124;19;1869;-48
2022/07/07 01:48:14;;;;;;;;;;;;;;;14.65;100.00;100390.97;3058219;19;877;-48
2022/07/07 01:49:19;;;;;;;;;;;;;;;14.65;100.00;100388.25;3058054;19;916;-48
2022/07/07 01:50:24;;;;;;;;;;;;;;;14.67;100.00;100388.16;3057813;19;1090;-48
2022/07/07 01:51:25;;;;;;;;;;;;;;;14.66;100.00;100387.28;3058064;19;966;-48
2022/07/07 01:52:30;;;;;;;;;;;;;;;14.67;100.00;100388.16;3057862;19;873;-48
2022/07/07 01:53:32;;;;;;;;;;;;;;;14.67;100.00;100389.00;3058068;19;1096;-48
2022/07/07 01:54:37;;;;;;;;;;;;;;;14.67;100.00;100389.00;3057320;19;1657;-47
2022/07/07 01:55:39;;;;;;;;;;;;;;;14.67;100.00;100383.63;3058041;19;936;-48
2022/07/07 01:56:45;;;;;;;;;;;;;;;14.69;100.00;100391.56;3057958;19;821;-48
2022/07/07 01:57:47;;;;;;;;;;;;;;;14.69;100.00;100386.19;3058219;19;976;-48
2022/07/07 01:58:51;;;;;;;;;;;;;;;14.68;100.00;100390.72;3058222;19;901;-48
2022/07/07 01:59:53;;;;;;;;;;;;;;;14.69;100.00;100387.06;3057431;19;964;-48
2022/07/07 02:00:58;;;;;;;;;;;;;;;14.69;100.00;100392.44;3057847;19;799;-48
2022/07/07 02:02:00;;;;;;;;;;;;;;;14.69;100.00;100389.75;3057610;19;1865;-47
2022/07/07 02:03:04;;;;;;;;;;;;;;;14.70;100.00;100394.13;3057639;19;973;-47
2022/07/07 02:04:06;;;;;;;;;;;;;;;14.70;100.00;100388.75;3057866;19;916;-48
2022/07/07 02:05:11;;;;;;;;;;;;;;;14.73;100.00;100396.56;3058185;19;877;-48
2022/07/07 02:06:13;;;;;;;;;;;;;;;14.73;100.00;100396.56;3057685;19;1040;-48
2022/07/07 02:07:17;;;;;;;;;;;;;;;14.73;100.00;100388.50;3057892;19;968;-50
2022/07/07 02:08:19;;;;;;;;;;;;;;;14.75;100.00;100397.28;3057735;19;968;-48
2022/07/07 02:09:24;;;;;;;;;;;;;;;14.76;100.00;100390.94;3057665;19;1792;-48
2022/07/07 02:11:45;;;;;;;;;;;;;;;14.77;100.00;100394.50;3058061;19;848;-47
2022/07/07 02:12:47;;;;;;;;;;;;;;;14.79;100.00;100392.53;3057689;19;901;-48
2022/07/07 02:13:52;;;;;;;;;;;;;;;14.78;100.00;100391.69;3057553;19;1801;-48
2022/07/07 02:14:54;;;;;;;;;;;;;;;14.78;100.00;100391.69;3057353;19;1015;-48
2022/07/07 02:15:58;;;;;;;;;;;;;;;14.77;100.00;100384.59;3057502;19;1762;-49
2022/07/07 02:17:03;;;;;;;;;;;;;;;14.78;100.00;100397.06;3057706;19;936;-49
2022/07/07 02:18:05;;;;;;;;;;;;;;;14.76;100.00;100396.31;3057877;19;1318;-48
2022/07/07 02:19:09;;;;;;;;;;;;;;;14.78;100.00;100397.06;3056520;19;949;-48
2022/07/07 02:20:11;;;;;;;;;;;;;;;14.76;100.00;100401.69;3058096;19;881;-48
2022/07/07 02:21:16;;;;;;;;;;;;;;;14.75;100.00;100391.91;3057226;19;1745;-48
2022/07/07 02:22:21;;;;;;;;;;;;;;;14.77;100.00;100389.97;3057593;19;1853;-48
2022/07/07 02:23:22;;;;;;;;;;;;;;;14.77;100.00;100392.66;3057262;19;899;-47
2022/07/07 02:24:28;;;;;;;;;;;;;;;14.78;100.00;100393.50;3057917;19;877;-48
2022/07/07 02:25:29;;;;;;;;;;;;;;;14.78;100.00;100390.81;3056193;19;1185;-48
2022/07/07 02:26:34;;;;;;;;;;;;;;;14.78;100.00;100388.13;3057566;19;928;-48
2022/07/07 02:27:36;;;;;;;;;;;;;;;14.81;100.00;100395.09;3057333;19;1459;-48
2022/07/07 02:28:44;;;;;;;;;;;;;;;14.79;100.00;100392.53;3057615;19;1004;-48
2022/07/07 02:29:46;;;;;;;;;;;;;;;14.81;100.00;100392.41;3057649;19;1014;-48
2022/07/07 02:30:50;;;;;;;;;;;;;;;14.81;100.00;100389.72;3057696;19;885;-48
2022/07/07 02:31:52;;;;;;;;;;;;;;;14.82;100.00;100394.97;3057401;19;874;-48
2022/07/07 02:32:57;;;;;;;;;;;;;;;14.83;100.00;100390.47;3057301;19;1743;-48
2022/07/07 02:33:59;;;;;;;;;;;;;;;14.82;100.00;100391.44;3057298;19;960;-46
2022/07/07 02:35:03;;;;;;;;;;;;;;;14.83;100.00;100387.78;3057212;19;893;-48
2022/07/07 02:36:05;;;;;;;;;;;;;;;14.82;100.00;100386.91;3057304;19;1059;-48
2022/07/07 02:37:10;;;;;;;;;;;;;;;14.84;100.00;100384.13;3057589;19;791;-49
2022/07/07 02:38:12;;;;;;;;;;;;;;;14.86;100.00;100387.50;3057204;19;952;-48
2022/07/07 02:39:16;;;;;;;;;;;;;;;14.85;100.00;100392.06;3057323;19;1697;-47
2022/07/07 02:40:18;;;;;;;;;;;;;;;14.87;100.00;100386.53;3057297;19;948;-48
2022/07/07 02:41:22;;;;;;;;;;;;;;;14.89;100.00;100389.94;3057602;19;968;-48
2022/07/07 02:42:24;;;;;;;;;;;;;;;14.90;100.00;100383.59;3057072;19;937;-48
2022/07/07 02:43:29;;;;;;;;;;;;;;;14.92;100.00;100387.88;3056056;19;1865;-48
2022/07/07 02:44:33;;;;;;;;;;;;;;;14.92;100.00;100384.34;3057187;19;980;-47
2022/07/07 02:45:35;;;;;;;;;;;;;;;14.94;100.00;100395.81;3057419;19;995;-47
2022/07/07 02:46:39;;;;;;;;;;;;;;;14.95;100.00;100386.78;3057317;19;1016;-48
2022/07/07 02:47:41;;;;;;;;;;;;;;;14.96;100.00;100391.19;3057342;19;849;-48
2022/07/07 02:48:46;;;;;;;;;;;;;;;14.97;100.00;100391.03;3057236;19;1028;-48
2022/07/07 02:49:47;;;;;;;;;;;;;;;14.98;100.00;100391.88;3057468;19;984;-48
2022/07/07 02:50:52;;;;;;;;;;;;;;;14.99;100.00;100390.91;3056843;19;949;-48
2022/07/07 02:51:54;;;;;;;;;;;;;;;15.00;100.00;100387.25;3057325;19;979;-48
2022/07/07 02:52:58;;;;;;;;;;;;;;;15.01;100.00;100394.31;3057002;19;881;-48
2022/07/07 02:54:03;;;;;;;;;;;;;;;15.02;100.00;100387.97;3057326;19;910;-48
2022/07/07 02:55:05;;;;;;;;;;;;;;;15.03;100.00;100389.69;3057183;19;993;-48
2022/07/07 02:56:09;;;;;;;;;;;;;;;15.04;100.00;100386.03;3056817;19;870;-47
2022/07/07 02:57:14;;;;;;;;;;;;;;;15.05;100.00;100393.13;3057380;19;762;-48
2022/07/07 02:58:19;;;;;;;;;;;;;;;15.08;100.00;100398.25;3056696;19;1361;-47
2022/07/07 02:59:24;;;;;;;;;;;;;;;15.09;100.00;100397.28;3057140;19;921;-48
2022/07/07 03:00:26;;;;;;;;;;;;;;;15.10;100.00;100397.13;3056982;19;854;-48
2022/07/07 03:01:30;;;;;;;;;;;;;;;15.13;100.00;100396.03;3056901;19;1007;-48
2022/07/07 03:02:32;;;;;;;;;;;;;;;15.13;100.00;100394.19;3056896;19;989;-48
2022/07/07 03:03:37;;;;;;;;;;;;;;;15.17;100.00;100388.56;3056057;19;1845;-49
2022/07/07 03:04:38;;;;;;;;;;;;;;;15.19;100.00;100397.34;3057009;19;932;-49
2022/07/07 03:05:43;;;;;;;;;;;;;;;15.21;100.00;100403.47;3056832;19;1036;-49
2022/07/07 03:06:45;;;;;;;;;;;;;;;15.22;100.00;100395.25;3056084;19;944;-48
2022/07/07 03:07:49;;;;;;;;;;;;;;;15.25;100.00;100405.75;3056100;19;905;-48
2022/07/07 03:08:54;;;;;;;;;;;;;;;15.27;100.00;100398.44;3056875;19;919;-48
2022/07/07 03:09:56;;;;;;;;;;;;;;;15.30;100.00;100403.56;3057000;19;1036;-48
2022/07/07 03:11:01;;;;;;;;;;;;;;;15.31;100.00;100399.03;3056928;19;985;-48
2022/07/07 03:12:03;;;;;;;;;;;;;;;15.33;100.00;100397.94;3057066;19;932;-49
2022/07/07 03:13:07;;;;;;;;;;;;;;;15.36;100.00;100403.03;3056498;19;997;-49
2022/07/07 03:14:09;;;;;;;;;;;;;;;15.38;100.00;100401.09;3057154;19;901;-48
2022/07/07 03:15:13;;;;;;;;;;;;;;;15.39;100.00;100405.47;3055936;19;1677;-49
2022/07/07 03:16:15;;;;;;;;;;;;;;;15.42;100.00;100399.84;3056823;19;980;-49
2022/07/07 03:17:20;;;;;;;;;;;;;;;15.44;100.00;100405.97;3056911;19;975;-48
2022/07/07 03:18:22;;;;;;;;;;;;;;;15.46;100.00;100409.34;3056981;19;877;-48
2022/07/07 03:19:27;;;;;;;;;;;;;;;15.50;100.00;100405.44;3056738;19;873;-49
2022/07/07 03:20:28;;;;;;;;;;;;;;;15.45;100.00;100402.31;3057023;19;924;-48
2022/07/07 03:21:33;;;;;;;;;;;;;;;15.56;100.00;100408.66;3056877;19;989;-48
2022/07/07 03:22:35;;;;;;;;;;;;;;;15.59;100.00;100408.38;3056915;19;975;-49
2022/07/07 03:23:39;;;;;;;;;;;;;;;15.63;100.00;100415.22;3056220;19;1849;-49
2022/07/07 03:24:41;;;;;;;;;;;;;;;15.65;100.00;100407.88;3056707;19;964;-49
2022/07/07 03:25:46;;;;;;;;;;;;;;;15.69;100.00;100406.63;3055607;19;1270;-49
2022/07/07 03:26:48;;;;;;;;;;;;;;;15.71;100.00;100408.19;3056435;19;988;-48
2022/07/07 03:27:52;;;;;;;;;;;;;;;15.75;100.00;100412.34;3056334;19;1032;-49
2022/07/07 03:28:54;;;;;;;;;;;;;;;15.78;100.00;100408.53;3056844;19;943;-48
2022/07/07 03:29:58;;;;;;;;;;;;;;;15.76;100.00;100410.50;3055103;19;1641;-49
2022/07/07 03:31:00;;;;;;;;;;;;;;;15.84;100.00;100416.09;3055368;19;1724;-48
2022/07/07 03:32:06;;;;;;;;;;;;;;;15.86;100.00;100411.44;3056499;19;857;-48
2022/07/07 03:33:08;;;;;;;;;;;;;;;15.90;100.00;100426.34;3056495;19;985;-49
2022/07/07 03:34:12;;;;;;;;;;;;;;;15.93;100.00;100426.09;3055364;19;969;-48
2022/07/07 03:35:14;;;;;;;;;;;;;;;15.96;100.00;100428.50;3055970;19;987;-49
2022/07/07 03:36:19;;;;;;;;;;;;;;;16.00;100.00;100416.50;3056457;19;1246;-48
2022/07/07 03:37:21;;;;;;;;;;;;;;;16.05;100.00;100425.06;3056373;19;972;-49
2022/07/07 03:38:26;;;;;;;;;;;;;;;16.10;100.00;100419.25;3056153;19;1044;-48
2022/07/07 03:39:27;;;;;;;;;;;;;;;16.15;100.00;100434.03;3056313;19;948;-48
2022/07/07 03:40:32;;;;;;;;;;;;;;;16.18;100.00;100428.38;3057002;19;1806;-48
2022/07/07 03:41:34;;;;;;;;;;;;;;;16.25;100.00;100417.94;3056013;19;909;-48
2022/07/07 03:42:39;;;;;;;;;;;;;;;16.29;100.00;100421.22;3056216;19;901;-48
2022/07/07 03:43:41;;;;;;;;;;;;;;;16.32;100.00;100429.88;3056524;19;1865;-48
2022/07/07 03:44:45;;;;;;;;;;;;;;;16.37;100.00;100433.03;3056907;19;1998;-48
2022/07/07 03:45:50;;;;;;;;;;;;;;;16.44;100.00;100433.34;3056530;19;952;-48
2022/07/07 03:46:52;;;;;;;;;;;;;;;16.48;100.00;100434.81;3056603;19;1026;-48
2022/07/07 03:47:57;;;;;;;;;;;;;;;16.51;100.00;100438.09;3056253;19;981;-49
2022/07/07 03:48:59;;;;;;;;;;;;;;;16.55;100.00;100436.81;3056237;19;968;-49
2022/07/07 03:50:03;;;;;;;;;;;;;;;16.59;100.00;100442.81;3056517;19;1610;-47
2022/07/07 03:51:06;;;;;;;;;;;;;;;16.62;100.00;100447.97;3057625;19;1376;-48
2022/07/07 03:52:10;;;;;;;;;;;;;;;16.66;100.00;100446.72;3056456;19;1690;-48
2022/07/07 03:53:12;;;;;;;;;;;;;;;16.69;100.00;100449.13;3056386;19;936;-48
2022/07/07 03:54:17;;;;;;;;;;;;;;;16.73;100.00;100457.78;3055925;19;1784;-48
2022/07/07 03:55:22;;;;;;;;;;;;;;;16.77;100.00;100465.50;3056046;19;1131;-49
2022/07/07 03:56:33;;;;;;;;;;;;;;;16.79;100.00;100460.78;3055714;19;1023;-49
2022/07/07 03:57:38;;;;;;;;;;;;;;;16.83;100.00;100467.63;3056604;19;987;-48
2022/07/07 03:58:40;;;;;;;;;;;;;;;16.86;100.00;100472.75;3056103;19;1024;-48
2022/07/07 03:59:44;;;;;;;;;;;;;;;16.89;100.00;100479.72;3056152;19;804;-48
2022/07/07 04:00:46;;;;;;;;;;;;;;;16.91;100.00;100480.41;3056944;19;1193;-48
2022/07/07 04:01:51;;;;;;;;;;;;;;;16.93;100.00;100484.69;3056084;19;923;-49
2022/07/07 04:02:53;;;;;;;;;;;;;;;16.97;100.00;100487.13;3055990;19;1024;-49
2022/07/07 04:03:57;;;;;;;;;;;;;;;16.99;100.00;100493.25;3056136;19;1825;-48
2022/07/07 04:05:10;;;;;;;;;;;;;;;17.02;100.00;100498.38;3055976;19;1000;-48
2022/07/07 04:06:11;;;;;;;;;;;;;;;17.04;100.00;100496.38;3055768;19;943;-49
2022/07/07 04:07:16;;;;;;;;;;;;;;;17.08;100.00;100500.50;3056206;19;941;-49
2022/07/07 04:08:18;;;;;;;;;;;;;;;17.09;100.00;100503.06;3056050;19;920;-50
2022/07/07 04:09:23;;;;;;;;;;;;;;;17.12;100.00;100510.91;3055809;19;1741;-49
2022/07/07 04:10:25;;;;;;;;;;;;;;;17.16;100.00;100511.47;3055896;19;1029;-48
2022/07/07 04:11:29;;;;;;;;;;;;;;;17.19;100.00;100516.59;3055825;19;909;-49
2022/07/07 04:12:31;;;;;;;;;;;;;;;17.22;100.00;100510.94;3056556;19;829;-48
2022/07/07 04:13:36;;;;;;;;;;;;;;;17.25;100.00;100505.28;3055746;19;956;-48
2022/07/07 04:14:37;;;;;;;;;;;;;;;17.29;100.00;100506.69;3055808;19;1901;-48
2022/07/07 04:15:42;;;;;;;;;;;;;;;17.33;100.00;100508.13;3055701;19;1591;-48
2022/07/07 04:16:44;;;;;;;;;;;;;;;17.38;100.00;100505.03;3055965;19;1064;-49
2022/07/07 04:17:48;;;;;;;;;;;;;;;17.45;100.00;100511.56;3055652;19;1790;-48
2022/07/07 04:18:50;;;;;;;;;;;;;;;17.52;100.00;100515.41;3056462;19;1832;-48
2022/07/07 04:19:55;;;;;;;;;;;;;;;17.57;100.00;100522.13;3055906;19;1641;-49
2022/07/07 04:20:57;;;;;;;;;;;;;;;17.66;100.00;100519.59;3056248;19;865;-48
2022/07/07 04:22:01;;;;;;;;;;;;;;;17.73;100.00;100520.75;3055900;19;945;-49
2022/07/07 04:23:04;;;;;;;;;;;;;;;17.83;100.00;100524.34;3055867;19;1043;-48
2022/07/07 04:24:10;;;;;;;;;;;;;;;17.93;100.00;100533.28;3055864;19;1864;-48
2022/07/07 04:25:14;;;;;;;;;;;;;;;18.05;100.00;100534.88;3055554;19;1152;-48
2022/07/07 04:26:16;;;;;;;;;;;;;;;18.17;100.00;100544.53;3055942;19;869;-48
2022/07/07 04:27:21;;;;;;;;;;;;;;;18.26;100.00;100543.69;3056154;19;1028;-48
2022/07/07 04:28:23;;;;;;;;;;;;;;;18.36;100.00;100547.22;3055849;19;1068;-50
2022/07/07 04:29:27;;;;;;;;;;;;;;;18.43;100.00;100546.66;3055855;19;1776;-49
2022/07/07 04:30:29;;;;;;;;;;;;;;;18.51;100.00;100553.06;3055697;19;960;-49
2022/07/07 04:31:34;;;;;;;;;;;;;;;18.62;100.00;100552.06;3055611;19;1738;-48
2022/07/07 04:32:36;;;;;;;;;;;;;;;18.68;100.00;100552.38;3055800;19;826;-50
2022/07/07 04:33:41;;;;;;;;;;;;;;;18.78;100.00;100555.03;3055882;19;1622;-48
2022/07/07 04:34:43;;;;;;;;;;;;;;;18.81;100.00;100552.06;3055865;19;944;-49
2022/07/07 04:35:47;;;;;;;;;;;;;;;18.94;100.00;100559.84;3055871;19;981;-49
2022/07/07 04:36:50;;;;;;;;;;;;;;;18.99;100.00;100555.69;3055508;19;925;-49
2022/07/07 04:37:54;;;;;;;;;;;;;;;19.07;100.00;100563.09;3055836;19;871;-48
2022/07/07 04:38:56;;;;;;;;;;;;;;;19.13;100.00;100567.91;3055846;19;907;-49
2022/07/07 04:40:01;;;;;;;;;;;;;;;19.18;100.00;100560.22;3055540;19;797;-48
2022/07/07 04:41:03;;;;;;;;;;;;;;;19.26;100.00;100567.56;3055382;19;997;-49
2022/07/07 04:42:07;;;;;;;;;;;;;;;19.32;100.00;100572.41;3057777;19;1060;-48
2022/07/07 04:43:09;;;;;;;;;;;;;;;19.40;100.00;100569.81;3058959;19;902;-48
2022/07/07 04:44:14;;;;;;;;;;;;;;;19.48;100.00;100575.31;3058773;19;1684;-49
2022/07/07 04:45:15;;;;;;;;;;;;;;;19.56;100.00;100580.84;3057734;19;1857;-49
2022/07/07 04:46:20;;;;;;;;;;;;;;;19.65;100.00;100577.28;3059129;19;883;-49
2022/07/07 04:47:22;;;;;;;;;;;;;;;19.74;100.00;100584.47;3058608;19;1103;-49
2022/07/07 04:48:27;;;;;;;;;;;;;;;19.83;100.00;100582.72;3060109;19;1368;-49
2022/07/07 04:49:33;;;;;;;;;;;;;;;19.91;100.00;100581.97;3058606;19;1028;-49
2022/07/07 04:50:34;;;;;;;;;;;;;;;19.98;100.00;100594.75;3059055;19;882;-49
2022/07/07 04:51:40;;;;;;;;;;;;;;;20.06;100.00;100586.69;3058290;19;981;-49
2022/07/07 04:52:42;;;;;;;;;;;;;;;20.14;100.00;100599.50;3058017;19;956;-49
2022/07/07 04:53:46;;;;;;;;;;;;;;;20.19;100.00;100605.28;3057292;19;987;-49
2022/07/07 04:54:48;;;;;;;;;;;;;;;20.24;100.00;100597.56;3058877;19;889;-49
2022/07/07 04:56:00;;;;;;;;;;;;;;;20.28;100.00;100604.38;3058669;19;952;-48
2022/07/07 04:57:03;;;;;;;;;;;;;;;20.33;100.00;100609.31;3058802;19;913;-48
2022/07/07 04:58:08;;;;;;;;;;;;;;;20.36;100.00;100611.78;3058493;19;973;-49
2022/07/07 04:59:09;;;;;;;;;;;;;;;20.43;100.00;100613.69;3058506;19;996;-49
2022/07/07 05:00:14;;;;;;;;;;;;;;;20.47;100.00;100615.09;3058704;19;1215;-48
2022/07/07 05:01:16;;;;;;;;;;;;;;;20.51;100.00;100620.22;3057849;19;954;-48
2022/07/07 05:02:21;;;;;;;;;;;;;;;20.53;100.00;100607.38;3058008;19;1615;-49
2022/07/07 05:03:23;;;;;;;;;;;;;;;20.55;100.00;100618.88;3059421;19;2197;-48
2022/07/07 05:04:27;;;;;;;;;;;;;;;20.52;100.00;100620.06;3054706;19;1794;-48
2022/07/07 05:05:29;;;;;;;;;;;;;;;20.52;100.00;100625.50;3057796;19;1888;-49
2022/07/07 05:06:34;;;;;;;;;;;;;;;20.53;100.00;100623.63;3058324;19;1782;-48
2022/07/07 05:07:36;;;;;;;;;;;;;;;20.57;100.00;100625.00;3058197;19;949;-48
2022/07/07 05:08:41;;;;;;;;;;;;;;;20.59;100.00;100628.41;3058269;19;921;-48
2022/07/07 05:09:43;;;;;;;;;;;;;;;20.60;100.00;100627.41;3058264;19;1188;-49
2022/07/07 05:10:47;;;;;;;;;;;;;;;20.63;100.00;100624.41;3057582;19;1786;-48
2022/07/07 05:11:49;;;;;;;;;;;;;;;20.65;100.00;100617.78;3058153;19;978;-48
2022/07/07 05:12:55;;;;;;;;;;;;;;;20.71;100.00;100622.59;3058649;19;1465;-49
2022/07/07 05:14:00;;;;;;;;;;;;;;;20.76;100.00;100620.28;3057231;19;2407;-49
2022/07/07 05:15:01;;;;;;;;;;;;;;;20.78;100.00;100620.97;3058350;19;1553;-48
2022/07/07 05:16:06;;;;;;;;;;;;;;;20.86;100.00;100628.34;3058553;19;1403;-49
2022/07/07 05:17:08;;;;;;;;;;;;;;;20.91;100.00;100619.69;3058657;19;1550;-49
2022/07/07 05:18:13;;;;;;;;;;;;;;;20.95;100.00;100630.09;3058255;19;2255;-48
2022/07/07 05:19:15;;;;;;;;;;;;;;;21.00;100.00;100629.63;3059550;19;1834;-48
2022/07/07 05:20:20;;;;;;;;;;;;;;;21.08;100.00;100625.09;3058309;19;888;-48
2022/07/07 05:21:21;;;;;;;;;;;;;;;21.19;100.00;100621.31;3058832;19;917;-49
2022/07/07 05:22:26;;;;;;;;;;;;;;;21.28;100.00;100624.91;3058481;19;1665;-50
2022/07/07 05:23:28;;;;;;;;;;;;;;;21.41;100.00;100619.91;3058104;19;917;-48
2022/07/07 05:24:33;;;;;;;;;;;;;;;21.53;100.00;100638.47;3059212;19;1392;-48
2022/07/07 05:25:34;;;;;;;;;;;;;;;21.64;100.00;100631.91;3058898;19;1852;-48
2022/07/07 05:26:39;;;;;;;;;;;;;;;21.72;100.00;100640.13;3059047;19;1381;-49
2022/07/07 05:27:44;;;;;;;;;;;;;;;21.80;100.00;100650.16;3059570;19;1240;-48
2022/07/07 05:28:54;;;;;;;;;;;;;;;21.83;100.00;100645.25;3059662;19;1727;-48
2022/07/07 05:29:56;;;;;;;;;;;;;;;21.89;100.00;100641.88;3059199;19;1636;-49